Tonka Bay, Minnesota
Current Conditions -  °F | °C
As of 11:53 PM on Thursday 18 Dec 2014 (Local Time) from KFCM Reporting Station
Overcast Overcast  
Wind Chill: 12°   Ceiling: 7500
Heat Index: 21°   Visibility: 10mi
Dew Point: 15°   Wind: 7mph
Humidity: 78%   Direction: 130°SE
Pressure: 30.26"   Gusts: NA
Location:  44.8924°N, 93.5895°W
Report Text: KFCM 190553Z AUTO 13006KT 10SM OVC075 M06/M09 A3026 RMK AO2 SLP264 T10611094 11056 21061 410501133 52004
Loading
Personal Weather Stations






























Interactive Weather Map New forecast layout! Learn more

10-Day Weather Forecast

Advertisements
Track Severe Weather on mobile